SAS728 ESSA-EFHK
Flight info
| Callsign | SAS728 |
|---|---|
| Flight time | 0h 37m |
| Altitude | 27000 |
| Route | TOVRI N851 RIKUM DCT RIRIP Y364 LAKUT |
| Aircraft | A20N/M-SDE3FGIRWXY/ALB1 |
Departure
| Time | 2026-05-07 17:41 |
|---|---|
| Airport | Stockholm-Arlanda Airport (ESSA) |
Arrival
| Time | 2026-05-07 18:18 |
|---|---|
| Airport | Helsinki Vantaa Airport (EFHK) |
| Time | Latitude | Longitude | Altitude | Speed | Heading |
|---|---|---|---|---|---|
| 2026-05-07 17:14 | 59.65331 | 17.93145 | 141 ft | 0 kts | 253° |
| 2026-05-07 17:29 | 59.65332 | 17.93152 | 113 ft | 3 kts | 253° |
| 2026-05-07 17:29 | 59.65338 | 17.93204 | 123 ft | 4 kts | 263° |
| 2026-05-07 17:30 | 59.65339 | 17.93255 | 141 ft | 4 kts | 285° |
| 2026-05-07 17:30 | 59.65328 | 17.93292 | 141 ft | 3 kts | 343° |
| 2026-05-07 17:30 | 59.65325 | 17.93293 | 140 ft | 1 kts | 346° |
| 2026-05-07 17:33 | 59.65353 | 17.93280 | 141 ft | 8 kts | 346° |
| 2026-05-07 17:34 | 59.65428 | 17.93238 | 140 ft | 14 kts | 335° |
| 2026-05-07 17:34 | 59.65503 | 17.93132 | 141 ft | 12 kts | 293° |
| 2026-05-07 17:34 | 59.65484 | 17.92957 | 141 ft | 15 kts | 251° |
| 2026-05-07 17:34 | 59.65438 | 17.92741 | 141 ft | 19 kts | 242° |
| 2026-05-07 17:35 | 59.65490 | 17.92568 | 141 ft | 16 kts | 333° |
| 2026-05-07 17:35 | 59.65593 | 17.92499 | 141 ft | 16 kts | 345° |
| 2026-05-07 17:35 | 59.65714 | 17.92439 | 141 ft | 20 kts | 346° |
| 2026-05-07 17:35 | 59.65858 | 17.92455 | 141 ft | 21 kts | 10° |
| 2026-05-07 17:36 | 59.65917 | 17.92321 | 142 ft | 6 kts | 278° |
| 2026-05-07 17:36 | 59.65917 | 17.92319 | 143 ft | 0 kts | 278° |
| 2026-05-07 17:39 | 59.65918 | 17.92316 | 143 ft | 2 kts | 278° |
| 2026-05-07 17:39 | 59.65925 | 17.92220 | 146 ft | 8 kts | 278° |
| 2026-05-07 17:39 | 59.65931 | 17.92142 | 148 ft | 6 kts | 276° |
| 2026-05-07 17:39 | 59.65915 | 17.92115 | 148 ft | 0 kts | 191° |
| 2026-05-07 17:40 | 59.65908 | 17.92112 | 148 ft | 5 kts | 191° |
| 2026-05-07 17:40 | 59.65733 | 17.92047 | 146 ft | 59 kts | 189° |
| 2026-05-07 17:40 | 59.65090 | 17.91817 | 145 ft | 128 kts | 190° |
| 2026-05-07 17:41 | 59.64063 | 17.91430 | 438 ft | 156 kts | 187° |
| 2026-05-07 17:41 | 59.63033 | 17.91048 | 1292 ft | 147 kts | 189° |
| 2026-05-07 17:41 | 59.61964 | 17.90754 | 1859 ft | 170 kts | 185° |
| 2026-05-07 17:41 | 59.60689 | 17.90576 | 2265 ft | 196 kts | 183° |
| 2026-05-07 17:42 | 59.59253 | 17.90412 | 2924 ft | 213 kts | 183° |
| 2026-05-07 17:42 | 59.57756 | 17.90343 | 3851 ft | 218 kts | 175° |
| 2026-05-07 17:42 | 59.56316 | 17.91248 | 4595 ft | 222 kts | 146° |
| 2026-05-07 17:42 | 59.55133 | 17.93273 | 5226 ft | 229 kts | 132° |
| 2026-05-07 17:43 | 59.54236 | 17.95856 | 6169 ft | 230 kts | 110° |
| 2026-05-07 17:43 | 59.54009 | 17.98948 | 7042 ft | 232 kts | 80° |
| 2026-05-07 17:43 | 59.54642 | 18.01965 | 7497 ft | 253 kts | 50° |
| 2026-05-07 17:43 | 59.55755 | 18.04831 | 8056 ft | 273 kts | 54° |
| 2026-05-07 17:44 | 59.56750 | 18.08103 | 8945 ft | 282 kts | 57° |
| 2026-05-07 17:44 | 59.57714 | 18.11517 | 9911 ft | 288 kts | 58° |
| 2026-05-07 17:44 | 59.58710 | 18.15042 | 10611 ft | 303 kts | 57° |
| 2026-05-07 17:44 | 59.59811 | 18.18806 | 11015 ft | 328 kts | 56° |
| 2026-05-07 17:45 | 59.61002 | 18.22746 | 11718 ft | 340 kts | 56° |
| 2026-05-07 17:45 | 59.62247 | 18.26786 | 12622 ft | 347 kts | 55° |
| 2026-05-07 17:45 | 59.63525 | 18.30887 | 13541 ft | 354 kts | 54° |
| 2026-05-07 17:45 | 59.64830 | 18.35059 | 14376 ft | 360 kts | 54° |
| 2026-05-07 17:46 | 59.66161 | 18.39313 | 15137 ft | 367 kts | 54° |
| 2026-05-07 17:46 | 59.67515 | 18.43649 | 15883 ft | 374 kts | 54° |
| 2026-05-07 17:46 | 59.68891 | 18.48065 | 16627 ft | 380 kts | 54° |
| 2026-05-07 17:46 | 59.70287 | 18.52561 | 17365 ft | 387 kts | 54° |
| 2026-05-07 17:47 | 59.71707 | 18.57146 | 18118 ft | 393 kts | 54° |
| 2026-05-07 17:47 | 59.73142 | 18.61795 | 18836 ft | 399 kts | 54° |
| 2026-05-07 17:47 | 59.74601 | 18.66526 | 19472 ft | 405 kts | 54° |
| 2026-05-07 17:47 | 59.76056 | 18.71264 | 20118 ft | 410 kts | 54° |
| 2026-05-07 17:48 | 59.77548 | 18.76130 | 20777 ft | 415 kts | 54° |
| 2026-05-07 17:48 | 59.79058 | 18.81059 | 21427 ft | 420 kts | 54° |
| 2026-05-07 17:48 | 59.80581 | 18.86042 | 22054 ft | 425 kts | 54° |
| 2026-05-07 17:48 | 59.82121 | 18.91091 | 22668 ft | 429 kts | 54° |
| 2026-05-07 17:49 | 59.83677 | 18.96200 | 23272 ft | 434 kts | 54° |
| 2026-05-07 17:49 | 59.85244 | 19.01362 | 23842 ft | 439 kts | 54° |
| 2026-05-07 17:49 | 59.86827 | 19.06588 | 24334 ft | 443 kts | 54° |
| 2026-05-07 17:49 | 59.88422 | 19.11863 | 24833 ft | 446 kts | 54° |
| 2026-05-07 17:50 | 59.90003 | 19.17108 | 25314 ft | 449 kts | 54° |
| 2026-05-07 17:50 | 59.91614 | 19.22464 | 25788 ft | 452 kts | 54° |
| 2026-05-07 17:50 | 59.93236 | 19.27870 | 26299 ft | 456 kts | 54° |
| 2026-05-07 17:50 | 59.94873 | 19.33332 | 26663 ft | 461 kts | 54° |
| 2026-05-07 17:51 | 59.96443 | 19.38959 | 27036 ft | 469 kts | 62° |
| 2026-05-07 17:51 | 59.97564 | 19.45098 | 27152 ft | 472 kts | 69° |
| 2026-05-07 17:51 | 59.98478 | 19.51414 | 27152 ft | 473 kts | 72° |
| 2026-05-07 17:51 | 59.99289 | 19.57785 | 27151 ft | 474 kts | 73° |
| 2026-05-07 17:52 | 60.00051 | 19.64204 | 27151 ft | 475 kts | 74° |
| 2026-05-07 17:52 | 60.00792 | 19.70620 | 27157 ft | 475 kts | 74° |
| 2026-05-07 17:52 | 60.01535 | 19.77064 | 27155 ft | 475 kts | 74° |
| 2026-05-07 17:52 | 60.02286 | 19.83524 | 27156 ft | 475 kts | 74° |
| 2026-05-07 17:53 | 60.03039 | 19.89956 | 27157 ft | 475 kts | 74° |
| 2026-05-07 17:53 | 60.03795 | 19.96379 | 27157 ft | 475 kts | 74° |
| 2026-05-07 17:53 | 60.04545 | 20.02741 | 27156 ft | 474 kts | 74° |
| 2026-05-07 17:53 | 60.05301 | 20.09173 | 27156 ft | 474 kts | 74° |
| 2026-05-07 17:54 | 60.06054 | 20.15601 | 27154 ft | 474 kts | 74° |
| 2026-05-07 17:54 | 60.06803 | 20.22031 | 27154 ft | 474 kts | 74° |
| 2026-05-07 17:54 | 60.07550 | 20.28466 | 27154 ft | 475 kts | 74° |
| 2026-05-07 17:54 | 60.08295 | 20.34918 | 27152 ft | 475 kts | 75° |
| 2026-05-07 17:55 | 60.09037 | 20.41377 | 27151 ft | 476 kts | 75° |
| 2026-05-07 17:55 | 60.09776 | 20.47843 | 27151 ft | 476 kts | 75° |
| 2026-05-07 17:55 | 60.10512 | 20.54315 | 27149 ft | 476 kts | 75° |
| 2026-05-07 17:55 | 60.11246 | 20.60803 | 27148 ft | 476 kts | 75° |
| 2026-05-07 17:56 | 60.11976 | 20.67286 | 27145 ft | 476 kts | 75° |
| 2026-05-07 17:56 | 60.12692 | 20.73678 | 27145 ft | 476 kts | 75° |
| 2026-05-07 17:56 | 60.13416 | 20.80165 | 27146 ft | 476 kts | 75° |
| 2026-05-07 17:56 | 60.14137 | 20.86659 | 27146 ft | 476 kts | 75° |
| 2026-05-07 17:57 | 60.14853 | 20.93147 | 27149 ft | 476 kts | 75° |
| 2026-05-07 17:57 | 60.15326 | 20.97443 | 27144 ft | 476 kts | 75° |
| 2026-05-07 17:57 | 60.16278 | 21.06134 | 27143 ft | 476 kts | 75° |
| 2026-05-07 17:57 | 60.16984 | 21.12623 | 27135 ft | 476 kts | 75° |
| 2026-05-07 17:58 | 60.17688 | 21.19123 | 27141 ft | 477 kts | 76° |
| 2026-05-07 17:58 | 60.18390 | 21.25630 | 27143 ft | 477 kts | 76° |
| 2026-05-07 17:58 | 60.19088 | 21.32140 | 27143 ft | 477 kts | 76° |
| 2026-05-07 17:58 | 60.19787 | 21.38685 | 27184 ft | 477 kts | 76° |
| 2026-05-07 17:59 | 60.20475 | 21.45160 | 27145 ft | 479 kts | 76° |
| 2026-05-07 17:59 | 60.21171 | 21.51727 | 27142 ft | 480 kts | 76° |
| 2026-05-07 17:59 | 60.21862 | 21.58289 | 27143 ft | 480 kts | 76° |
| 2026-05-07 17:59 | 60.22551 | 21.64860 | 27137 ft | 480 kts | 76° |
| 2026-05-07 18:00 | 60.23238 | 21.71440 | 27139 ft | 480 kts | 76° |
| 2026-05-07 18:00 | 60.23920 | 21.78013 | 27140 ft | 480 kts | 76° |
| 2026-05-07 18:00 | 60.24597 | 21.84568 | 27140 ft | 480 kts | 76° |
| 2026-05-07 18:00 | 60.25274 | 21.91158 | 27140 ft | 480 kts | 76° |
| 2026-05-07 18:01 | 60.25947 | 21.97745 | 27130 ft | 481 kts | 77° |
| 2026-05-07 18:01 | 60.26617 | 22.04343 | 27129 ft | 481 kts | 77° |
| 2026-05-07 18:01 | 60.27284 | 22.10932 | 27133 ft | 481 kts | 77° |
| 2026-05-07 18:01 | 60.27948 | 22.17533 | 27128 ft | 481 kts | 77° |
| 2026-05-07 18:02 | 60.29266 | 22.30744 | 27125 ft | 481 kts | 77° |
| 2026-05-07 18:02 | 60.29919 | 22.37350 | 27130 ft | 481 kts | 77° |
| 2026-05-07 18:02 | 60.30571 | 22.43971 | 27126 ft | 481 kts | 77° |
| 2026-05-07 18:03 | 60.31216 | 22.50566 | 27001 ft | 476 kts | 77° |
| 2026-05-07 18:03 | 60.31853 | 22.57106 | 26458 ft | 475 kts | 77° |
| 2026-05-07 18:03 | 60.32492 | 22.63697 | 25585 ft | 481 kts | 77° |
| 2026-05-07 18:03 | 60.33128 | 22.70324 | 25026 ft | 478 kts | 78° |
| 2026-05-07 18:04 | 60.33747 | 22.76813 | 24242 ft | 476 kts | 78° |
| 2026-05-07 18:04 | 60.34364 | 22.83314 | 23624 ft | 468 kts | 78° |
| 2026-05-07 18:04 | 60.34971 | 22.89749 | 22820 ft | 463 kts | 78° |
| 2026-05-07 18:04 | 60.35565 | 22.96083 | 22069 ft | 456 kts | 78° |
| 2026-05-07 18:05 | 60.36149 | 23.02339 | 21367 ft | 449 kts | 78° |
| 2026-05-07 18:05 | 60.36531 | 23.06438 | 20881 ft | 445 kts | 78° |
| 2026-05-07 18:05 | 60.37102 | 23.12612 | 20178 ft | 438 kts | 78° |
| 2026-05-07 18:05 | 60.37649 | 23.18551 | 19494 ft | 432 kts | 78° |
| 2026-05-07 18:06 | 60.38194 | 23.24497 | 18810 ft | 426 kts | 78° |
| 2026-05-07 18:06 | 60.38728 | 23.30354 | 18111 ft | 420 kts | 77° |
| 2026-05-07 18:06 | 60.39251 | 23.36115 | 17360 ft | 414 kts | 78° |
| 2026-05-07 18:06 | 60.39763 | 23.41790 | 16629 ft | 408 kts | 77° |
| 2026-05-07 18:07 | 60.40265 | 23.47376 | 15922 ft | 401 kts | 77° |
| 2026-05-07 18:07 | 60.40759 | 23.52895 | 15190 ft | 396 kts | 78° |
| 2026-05-07 18:07 | 60.41242 | 23.58336 | 14508 ft | 390 kts | 78° |
| 2026-05-07 18:07 | 60.41717 | 23.63697 | 13833 ft | 384 kts | 78° |
| 2026-05-07 18:08 | 60.42182 | 23.68982 | 13165 ft | 377 kts | 78° |
| 2026-05-07 18:08 | 60.42635 | 23.74144 | 12480 ft | 369 kts | 78° |
| 2026-05-07 18:08 | 60.43078 | 23.79212 | 11828 ft | 361 kts | 78° |
| 2026-05-07 18:08 | 60.43503 | 23.84098 | 11144 ft | 354 kts | 79° |
| 2026-05-07 18:09 | 60.43881 | 23.88971 | 10468 ft | 346 kts | 81° |
| 2026-05-07 18:09 | 60.44172 | 23.93721 | 10031 ft | 332 kts | 82° |
| 2026-05-07 18:09 | 60.44432 | 23.98237 | 9773 ft | 313 kts | 82° |
| 2026-05-07 18:09 | 60.44675 | 24.02495 | 9463 ft | 298 kts | 82° |
| 2026-05-07 18:10 | 60.44910 | 24.06606 | 8908 ft | 292 kts | 82° |
| 2026-05-07 18:10 | 60.45143 | 24.10678 | 8389 ft | 289 kts | 82° |
| 2026-05-07 18:10 | 60.45372 | 24.14716 | 7939 ft | 288 kts | 82° |
| 2026-05-07 18:10 | 60.45599 | 24.18718 | 7530 ft | 286 kts | 82° |
| 2026-05-07 18:11 | 60.45825 | 24.22721 | 7170 ft | 283 kts | 83° |
| 2026-05-07 18:11 | 60.46048 | 24.26698 | 6679 ft | 285 kts | 82° |
| 2026-05-07 18:11 | 60.46268 | 24.30648 | 6403 ft | 278 kts | 83° |
| 2026-05-07 18:11 | 60.46480 | 24.34508 | 5855 ft | 274 kts | 82° |
| 2026-05-07 18:12 | 60.46545 | 24.38370 | 5271 ft | 274 kts | 88° |
| 2026-05-07 18:12 | 60.46512 | 24.42200 | 4974 ft | 269 kts | 89° |
| 2026-05-07 18:12 | 60.46458 | 24.45958 | 4674 ft | 266 kts | 89° |
| 2026-05-07 18:12 | 60.46392 | 24.49693 | 4331 ft | 265 kts | 90° |
| 2026-05-07 18:13 | 60.46320 | 24.53428 | 3979 ft | 265 kts | 90° |
| 2026-05-07 18:13 | 60.46243 | 24.57147 | 3649 ft | 264 kts | 90° |
| 2026-05-07 18:13 | 60.46162 | 24.60868 | 3304 ft | 264 kts | 91° |
| 2026-05-07 18:13 | 60.46080 | 24.64569 | 2962 ft | 263 kts | 91° |
| 2026-05-07 18:14 | 60.45999 | 24.68163 | 2630 ft | 262 kts | 91° |
| 2026-05-07 18:14 | 60.45915 | 24.71846 | 2293 ft | 261 kts | 92° |
| 2026-05-07 18:14 | 60.45831 | 24.75528 | 2044 ft | 261 kts | 92° |
| 2026-05-07 18:14 | 60.45738 | 24.79090 | 2021 ft | 242 kts | 95° |
| 2026-05-07 18:15 | 60.45213 | 24.82108 | 2026 ft | 218 kts | 123° |
| 2026-05-07 18:15 | 60.44282 | 24.84321 | 2016 ft | 197 kts | 137° |
| 2026-05-07 18:15 | 60.43210 | 24.85957 | 2007 ft | 191 kts | 153° |
| 2026-05-07 18:15 | 60.42025 | 24.87163 | 2002 ft | 191 kts | 155° |
| 2026-05-07 18:16 | 60.40843 | 24.88386 | 1938 ft | 191 kts | 154° |
| 2026-05-07 18:16 | 60.39665 | 24.89618 | 1704 ft | 190 kts | 155° |
| 2026-05-07 18:16 | 60.38503 | 24.90823 | 1436 ft | 184 kts | 155° |
| 2026-05-07 18:16 | 60.37390 | 24.91967 | 1165 ft | 175 kts | 155° |
| 2026-05-07 18:17 | 60.36339 | 24.93050 | 929 ft | 164 kts | 155° |
| 2026-05-07 18:17 | 60.35350 | 24.94068 | 710 ft | 154 kts | 155° |
| 2026-05-07 18:17 | 60.34428 | 24.95015 | 509 ft | 143 kts | 154° |
| 2026-05-07 18:17 | 60.33564 | 24.95902 | 328 ft | 136 kts | 154° |
| 2026-05-07 18:18 | 60.32726 | 24.96762 | 177 ft | 133 kts | 154° |
| 2026-05-07 18:18 | 60.32013 | 24.97492 | 175 ft | 90 kts | 153° |
| 2026-05-07 18:18 | 60.31661 | 24.97847 | 179 ft | 42 kts | 154° |
| 2026-05-07 18:18 | 60.31446 | 24.97962 | 183 ft | 15 kts | 215° |
| 2026-05-07 18:19 | 60.31411 | 24.97847 | 194 ft | 0 kts | 243° |
| 2026-05-07 18:19 | 60.31410 | 24.97846 | 194 ft | 0 kts | 243° |
| 2026-05-07 18:19 | 60.31410 | 24.97845 | 194 ft | 1 kts | 243° |
| 2026-05-07 18:19 | 60.31415 | 24.97781 | 183 ft | 9 kts | 305° |
| 2026-05-07 18:20 | 60.31490 | 24.97691 | 183 ft | 14 kts | 334° |
| 2026-05-07 18:20 | 60.31580 | 24.97594 | 182 ft | 15 kts | 332° |
| 2026-05-07 18:20 | 60.31678 | 24.97495 | 180 ft | 16 kts | 334° |
| 2026-05-07 18:20 | 60.31780 | 24.97390 | 179 ft | 17 kts | 333° |
| 2026-05-07 18:21 | 60.31891 | 24.97276 | 178 ft | 18 kts | 332° |
| 2026-05-07 18:21 | 60.32009 | 24.97152 | 176 ft | 20 kts | 332° |
| 2026-05-07 18:21 | 60.32130 | 24.97025 | 174 ft | 19 kts | 329° |
| 2026-05-07 18:21 | 60.32131 | 24.96922 | 174 ft | 9 kts | 224° |
| 2026-05-07 18:22 | 60.32083 | 24.96826 | 173 ft | 10 kts | 228° |
| 2026-05-07 18:22 | 60.32050 | 24.96752 | 172 ft | 11 kts | 227° |
| 2026-05-07 18:22 | 60.31981 | 24.96605 | 171 ft | 5 kts | 205° |
| 2026-05-07 18:22 | 60.31962 | 24.96627 | 172 ft | 4 kts | 136° |
| 2026-05-07 18:23 | 60.31941 | 24.96667 | 172 ft | 2 kts | 137° |
| 2026-05-07 18:23 | 60.31939 | 24.96671 | 172 ft | 0 kts | 137° |